createdAt,value
2018-09-20T00:00:41.485Z,4.00
2018-09-20T00:01:41.481Z,4.00
2018-09-20T00:02:41.459Z,4.00
2018-09-20T00:03:41.443Z,4.00
2018-09-20T00:04:41.428Z,4.00
2018-09-20T00:05:41.414Z,4.00
2018-09-20T00:06:41.399Z,4.00
2018-09-20T00:07:41.387Z,4.00
2018-09-20T00:08:41.370Z,4.00
2018-09-20T00:09:41.357Z,4.00
2018-09-20T00:10:41.344Z,4.00
2018-09-20T00:11:41.325Z,4.00
2018-09-20T00:12:41.310Z,4.00
2018-09-20T00:13:41.300Z,4.00
2018-09-20T00:14:41.279Z,4.00
2018-09-20T00:15:41.273Z,4.00
2018-09-20T00:16:41.250Z,4.00
2018-09-20T00:17:41.240Z,4.00
2018-09-20T00:18:41.222Z,4.00
2018-09-20T00:19:41.208Z,4.00
2018-09-20T00:20:41.193Z,4.00
2018-09-20T00:21:41.178Z,4.00
2018-09-20T00:22:41.179Z,4.00
2018-09-20T00:23:41.173Z,4.00
2018-09-20T00:24:41.134Z,4.00
2018-09-20T00:25:41.127Z,4.00
2018-09-20T00:26:41.115Z,4.00
2018-09-20T00:27:41.088Z,4.00
2018-09-20T00:28:41.082Z,4.00
2018-09-20T00:29:41.060Z,4.00
2018-09-20T00:30:41.059Z,4.00
2018-09-20T00:31:41.038Z,4.00
2018-09-20T00:32:41.014Z,4.00
2018-09-20T00:33:41.000Z,4.00
2018-09-20T00:34:40.992Z,4.00
2018-09-20T00:35:40.972Z,4.00
2018-09-20T00:36:40.958Z,4.00
2018-09-20T00:37:40.946Z,4.00
2018-09-20T00:38:40.926Z,4.00
2018-09-20T00:39:40.911Z,4.00
2018-09-20T00:40:40.903Z,4.00
2018-09-20T00:41:40.887Z,4.00
2018-09-20T00:42:40.893Z,4.00
2018-09-20T00:43:40.858Z,4.00
2018-09-20T00:44:40.837Z,4.00
2018-09-20T00:45:40.822Z,4.00
2018-09-20T00:46:40.814Z,4.00
2018-09-20T00:47:40.795Z,4.00
2018-09-20T00:48:40.782Z,4.00
2018-09-20T00:49:40.763Z,4.00
2018-09-20T00:50:40.749Z,4.00
2018-09-20T00:51:40.734Z,4.00
2018-09-20T00:52:40.718Z,4.00
2018-09-20T00:53:40.702Z,4.00
2018-09-20T00:54:40.689Z,4.00
2018-09-20T00:55:40.674Z,4.00
2018-09-20T00:56:40.658Z,4.00
2018-09-20T00:57:40.645Z,4.00
2018-09-20T00:58:40.643Z,4.00
2018-09-20T00:59:40.624Z,4.00
2018-09-20T01:00:40.599Z,4.00
2018-09-20T01:01:40.583Z,4.00
2018-09-20T01:02:40.566Z,4.00
2018-09-20T01:03:40.570Z,4.00
2018-09-20T01:04:40.540Z,4.00
2018-09-20T01:05:40.524Z,4.00
2018-09-20T01:06:40.508Z,4.00
2018-09-20T01:07:40.494Z,4.00
2018-09-20T01:08:40.478Z,4.00
2018-09-20T01:09:40.466Z,4.00
2018-09-20T01:10:40.465Z,4.00
2018-09-20T01:11:40.435Z,4.00
2018-09-20T01:12:40.430Z,4.00
2018-09-20T01:13:40.406Z,4.00
2018-09-20T01:14:40.396Z,4.00
2018-09-20T01:15:40.376Z,4.00
2018-09-20T01:16:40.361Z,4.00
2018-09-20T01:17:40.344Z,4.00
2018-09-20T01:18:40.341Z,4.00
2018-09-20T01:19:40.314Z,4.00
2018-09-20T01:20:40.306Z,4.00
2018-09-20T01:21:40.285Z,4.00
2018-09-20T01:22:40.269Z,4.00
2018-09-20T01:23:40.254Z,4.00
2018-09-20T01:24:40.240Z,4.00
2018-09-20T01:25:40.225Z,4.00
2018-09-20T01:26:40.212Z,4.00
2018-09-20T01:27:40.194Z,4.00
2018-09-20T01:28:40.179Z,4.00
2018-09-20T01:29:40.163Z,4.00
2018-09-20T01:30:40.148Z,4.00
2018-09-20T01:31:40.143Z,4.00
2018-09-20T01:32:40.123Z,4.00
2018-09-20T01:33:40.104Z,4.00
2018-09-20T01:34:40.094Z,4.00
2018-09-20T01:35:40.075Z,4.00
2018-09-20T01:36:40.059Z,4.00
2018-09-20T01:37:40.048Z,4.00
2018-09-20T01:38:40.141Z,4.00
2018-09-20T01:39:40.014Z,4.00
2018-09-20T01:40:40.001Z,4.00
2018-09-20T01:41:39.982Z,4.00
2018-09-20T01:42:39.966Z,4.00
2018-09-20T01:43:39.957Z,4.00
2018-09-20T01:44:39.943Z,4.00
2018-09-20T01:45:39.927Z,4.00
2018-09-20T01:46:39.911Z,4.00
2018-09-20T01:47:39.892Z,4.00
2018-09-20T01:48:39.881Z,4.00
2018-09-20T01:49:39.865Z,4.00
2018-09-20T01:50:39.845Z,4.00
2018-09-20T01:51:39.835Z,4.00
2018-09-20T01:52:39.818Z,4.00
2018-09-20T01:53:39.806Z,4.00
2018-09-20T01:54:39.794Z,4.00
2018-09-20T01:55:39.776Z,4.00
2018-09-20T01:56:39.755Z,4.00
2018-09-20T01:57:39.740Z,4.00
2018-09-20T01:58:39.726Z,4.00
2018-09-20T01:59:39.710Z,4.00
2018-09-20T02:00:39.695Z,4.00
2018-09-20T02:01:39.679Z,4.00
2018-09-20T02:02:39.665Z,4.00
2018-09-20T02:03:39.656Z,4.00
2018-09-20T02:04:39.634Z,4.00
2018-09-20T02:05:39.618Z,4.00
2018-09-20T02:06:39.603Z,4.00
2018-09-20T02:07:39.591Z,4.00
2018-09-20T02:08:39.572Z,4.00
2018-09-20T02:09:39.565Z,4.00
2018-09-20T02:10:39.541Z,4.00
2018-09-20T02:11:39.527Z,4.00
2018-09-20T02:12:39.514Z,4.00
2018-09-20T02:13:39.498Z,4.00
2018-09-20T02:14:39.488Z,4.00
2018-09-20T02:15:39.469Z,4.00
2018-09-20T02:16:39.450Z,4.00
2018-09-20T02:17:39.435Z,4.00
2018-09-20T02:18:39.419Z,4.00
2018-09-20T02:19:39.403Z,4.00
2018-09-20T02:20:39.390Z,4.00
2018-09-20T02:21:39.373Z,4.00
2018-09-20T02:22:39.357Z,4.00
2018-09-20T02:23:39.342Z,4.00
2018-09-20T02:24:39.481Z,4.00
2018-09-20T02:25:39.311Z,4.00
2018-09-20T02:26:39.295Z,4.00
2018-09-20T02:27:39.381Z,4.00
2018-09-20T02:28:39.268Z,4.00
2018-09-20T02:29:39.250Z,4.00
2018-09-20T02:30:39.252Z,4.00
2018-09-20T02:31:39.227Z,4.00
2018-09-20T02:32:39.212Z,4.00
2018-09-20T02:33:39.188Z,4.00
2018-09-20T02:34:39.172Z,4.00
2018-09-20T02:35:39.157Z,4.00
2018-09-20T02:36:39.150Z,4.00
2018-09-20T02:37:39.128Z,4.00
2018-09-20T02:38:39.112Z,4.00
2018-09-20T02:39:39.101Z,4.00
2018-09-20T02:40:39.080Z,4.00
2018-09-20T02:41:39.075Z,4.00
2018-09-20T02:42:39.058Z,4.00
2018-09-20T02:43:39.036Z,4.00
2018-09-20T02:44:39.036Z,4.00
2018-09-20T02:45:39.003Z,4.00
2018-09-20T02:46:38.988Z,4.00
2018-09-20T02:47:38.972Z,4.00
2018-09-20T02:48:38.987Z,4.00
2018-09-20T02:49:38.943Z,4.00
2018-09-20T02:50:38.925Z,4.00
2018-09-20T02:51:38.912Z,4.00
2018-09-20T02:52:38.897Z,4.00
2018-09-20T02:53:38.889Z,4.00
2018-09-20T02:54:38.864Z,4.00
2018-09-20T02:55:38.849Z,4.00
2018-09-20T02:56:38.834Z,4.00
2018-09-20T02:57:38.819Z,4.00
2018-09-20T02:58:38.803Z,4.00
2018-09-20T02:59:38.788Z,4.00
2018-09-20T03:00:38.781Z,4.00
2018-09-20T03:01:38.765Z,4.00
2018-09-20T03:02:38.741Z,4.00
2018-09-20T03:03:38.728Z,4.00
2018-09-20T03:04:38.710Z,4.00
2018-09-20T03:05:38.733Z,4.00
2018-09-20T03:06:38.679Z,4.00
2018-09-20T03:07:38.664Z,4.00
2018-09-20T03:08:38.650Z,4.00
2018-09-20T03:09:38.634Z,4.00
2018-09-20T03:10:38.616Z,4.00
2018-09-20T03:11:38.602Z,4.00
2018-09-20T03:12:38.588Z,4.00
2018-09-20T03:13:38.622Z,4.00
2018-09-20T03:14:38.565Z,4.00
2018-09-20T03:15:38.540Z,4.00
2018-09-20T03:16:38.524Z,4.00
2018-09-20T03:17:38.509Z,4.00
2018-09-20T03:18:38.496Z,4.00
2018-09-20T03:19:38.476Z,4.00
2018-09-20T03:20:38.475Z,4.00
2018-09-20T03:21:38.453Z,4.00
2018-09-20T03:22:38.433Z,4.00
2018-09-20T03:23:38.542Z,4.00
2018-09-20T03:24:38.399Z,4.00
2018-09-20T03:25:38.383Z,4.00
2018-09-20T03:26:38.366Z,4.00
2018-09-20T03:27:38.350Z,4.00
2018-09-20T03:28:38.336Z,4.00
2018-09-20T03:29:38.331Z,4.00
2018-09-20T03:30:38.380Z,4.00
2018-09-20T03:31:38.307Z,4.00
2018-09-20T03:32:38.281Z,4.00
2018-09-20T03:33:38.259Z,4.00
2018-09-20T03:34:38.300Z,4.00
2018-09-20T03:35:38.243Z,4.00
2018-09-20T03:36:38.212Z,4.00
2018-09-20T03:37:38.196Z,4.00
2018-09-20T03:38:38.188Z,4.00
2018-09-20T03:39:38.168Z,4.00
2018-09-20T03:40:38.148Z,4.00
2018-09-20T03:41:38.135Z,4.00
2018-09-20T03:42:38.122Z,4.00
2018-09-20T03:43:38.103Z,4.00
2018-09-20T03:44:38.089Z,4.00
2018-09-20T03:45:38.074Z,4.00
2018-09-20T03:46:38.058Z,4.00
2018-09-20T03:47:38.040Z,4.00
2018-09-20T03:48:38.026Z,4.00
2018-09-20T03:49:38.010Z,4.00
2018-09-20T03:50:38.148Z,4.00
2018-09-20T03:51:37.978Z,4.00
2018-09-20T03:52:37.972Z,4.00
2018-09-20T03:53:37.949Z,4.00
2018-09-20T03:54:37.933Z,4.00
2018-09-20T03:55:37.928Z,4.00
2018-09-20T03:56:37.903Z,4.00
2018-09-20T03:57:37.886Z,4.00
2018-09-20T03:58:37.869Z,4.00
2018-09-20T03:59:37.854Z,4.00
2018-09-20T04:00:37.840Z,4.00
2018-09-20T04:01:37.836Z,4.00
2018-09-20T04:02:37.810Z,4.00
2018-09-20T04:03:37.800Z,4.00
2018-09-20T04:04:37.779Z,4.00
2018-09-20T04:05:37.764Z,4.00
2018-09-20T04:06:37.807Z,4.00
2018-09-20T04:07:37.732Z,4.00
2018-09-20T04:08:37.716Z,4.00
2018-09-20T04:09:37.752Z,4.00
2018-09-20T04:10:37.684Z,4.00
2018-09-20T04:11:37.668Z,4.00
2018-09-20T04:12:37.653Z,4.00
2018-09-20T04:13:37.650Z,4.00
2018-09-20T04:14:37.624Z,4.00
2018-09-20T04:15:37.608Z,4.00
2018-09-20T04:16:37.597Z,4.00
2018-09-20T04:17:37.573Z,4.00
2018-09-20T04:18:37.563Z,4.00
2018-09-20T04:19:37.542Z,4.00
2018-09-20T04:20:37.530Z,4.00
2018-09-20T04:21:37.512Z,4.00
2018-09-20T04:22:37.498Z,4.00
2018-09-20T04:23:37.482Z,4.00
2018-09-20T04:24:37.473Z,4.00
2018-09-20T04:25:37.449Z,4.00
2018-09-20T04:26:37.432Z,4.00
2018-09-20T04:27:37.416Z,4.00
2018-09-20T04:28:37.407Z,4.00
2018-09-20T04:29:37.393Z,4.00
2018-09-20T04:30:37.371Z,4.00
2018-09-20T04:32:41.610Z,8.00
2018-09-20T04:33:41.592Z,4.00
2018-09-20T04:34:41.578Z,4.00
2018-09-20T04:35:41.563Z,4.00
2018-09-20T04:36:41.547Z,4.00
2018-09-20T04:37:41.663Z,4.00
2018-09-20T04:38:41.514Z,4.00
2018-09-20T04:39:41.499Z,4.00
2018-09-20T04:40:41.493Z,8.00
2018-09-20T04:41:41.472Z,8.00
2018-09-20T04:42:41.458Z,8.00
2018-09-20T04:43:41.444Z,8.00
2018-09-20T04:44:41.435Z,12.00
2018-09-20T04:45:41.405Z,8.00
2018-09-20T04:46:41.389Z,8.00
2018-09-20T04:47:41.372Z,8.00
2018-09-20T04:48:41.360Z,12.00
2018-09-20T04:49:41.341Z,12.00
2018-09-20T04:50:41.332Z,20.00
2018-09-20T04:51:41.311Z,20.00
2018-09-20T04:52:41.294Z,20.00
2018-09-20T04:53:41.287Z,28.00
2018-09-20T04:54:41.265Z,24.00
2018-09-20T04:55:41.270Z,28.00
2018-09-20T04:56:41.331Z,32.00
2018-09-20T04:57:41.214Z,36.00
2018-09-20T04:58:41.201Z,44.00
2018-09-20T04:59:41.194Z,48.00
2018-09-20T05:00:41.174Z,56.00
2018-09-20T05:01:41.152Z,64.00
2018-09-20T05:02:41.138Z,72.00
2018-09-20T05:03:41.121Z,80.00
2018-09-20T05:04:41.104Z,92.00
2018-09-20T05:05:41.089Z,100.00
2018-09-20T05:06:41.073Z,116.00
2018-09-20T05:07:41.065Z,124.00
2018-09-20T05:08:41.044Z,140.00
2018-09-20T05:09:41.036Z,156.00
2018-09-20T05:10:41.014Z,168.00
2018-09-20T05:11:41.003Z,188.00
2018-09-20T05:12:40.980Z,212.00
2018-09-20T05:13:40.963Z,240.00
2018-09-20T05:14:40.948Z,264.00
2018-09-20T05:15:40.932Z,292.00
2018-09-20T05:16:40.916Z,320.00
2018-09-20T05:17:40.900Z,344.00
2018-09-20T05:18:40.894Z,376.00
2018-09-20T05:19:40.873Z,404.00
2018-09-20T05:20:40.876Z,432.00
2018-09-20T05:21:40.844Z,464.00
2018-09-20T05:22:40.821Z,500.00
2018-09-20T05:23:40.807Z,536.00
2018-09-20T05:24:40.804Z,568.00
2018-09-20T05:25:40.776Z,604.00
2018-09-20T05:26:40.761Z,636.00
2018-09-20T05:27:40.753Z,684.00
2018-09-20T05:28:40.726Z,724.00
2018-09-20T05:29:40.713Z,760.00
2018-09-20T05:30:40.700Z,792.00
2018-09-20T05:31:40.679Z,840.00
2018-09-20T05:32:40.666Z,884.00
2018-09-20T05:33:40.648Z,932.00
2018-09-20T05:34:40.639Z,996.00
2018-09-20T05:35:40.625Z,1052.00
2018-09-20T05:36:40.608Z,1112.00
2018-09-20T05:37:40.591Z,1176.00
2018-09-20T05:38:40.572Z,1244.00
2018-09-20T05:39:40.554Z,1300.00
2018-09-20T05:40:40.550Z,1332.00
2018-09-20T05:41:40.521Z,1420.00
2018-09-20T05:42:40.508Z,1504.00
2018-09-20T05:43:40.568Z,1528.00
2018-09-20T05:44:40.478Z,1536.00
2018-09-20T05:45:40.460Z,1652.00
2018-09-20T05:46:40.451Z,1728.00
2018-09-20T05:47:40.426Z,1780.00
2018-09-20T05:48:40.420Z,1784.00
2018-09-20T05:49:40.394Z,1788.00
2018-09-20T05:50:40.393Z,1820.00
2018-09-20T05:51:40.374Z,1784.00
2018-09-20T05:52:40.349Z,1672.00
2018-09-20T05:53:40.335Z,1624.00
2018-09-20T05:54:40.319Z,1644.00
2018-09-20T05:55:40.303Z,1768.00
2018-09-20T05:56:40.304Z,1864.00
2018-09-20T05:57:40.272Z,1824.00
2018-09-20T05:58:40.267Z,1944.00
2018-09-20T05:59:40.241Z,2032.00
2018-09-20T06:00:40.227Z,2084.00
2018-09-20T06:01:40.210Z,2108.00
2018-09-20T06:02:40.207Z,2172.00
2018-09-20T06:03:40.178Z,2264.00
2018-09-20T06:04:40.162Z,2340.00
2018-09-20T06:05:40.186Z,2364.00
2018-09-20T06:06:40.142Z,2384.00
2018-09-20T06:07:40.118Z,2344.00
2018-09-20T06:08:40.102Z,2380.00
2018-09-20T06:09:40.157Z,2428.00
2018-09-20T06:10:40.081Z,2480.00
2018-09-20T06:11:40.054Z,2512.00
2018-09-20T06:12:40.063Z,2532.00
2018-09-20T06:13:40.025Z,2564.00
2018-09-20T06:14:40.009Z,2640.00
2018-09-20T06:15:39.992Z,2736.00
2018-09-20T06:16:39.980Z,2860.00
2018-09-20T06:17:39.962Z,3004.00
2018-09-20T06:18:39.945Z,3124.00
2018-09-20T06:19:39.931Z,3244.00
2018-09-20T06:20:39.913Z,3360.00
2018-09-20T06:21:39.905Z,3444.00
2018-09-20T06:22:39.884Z,3544.00
2018-09-20T06:23:39.872Z,3628.00
2018-09-20T06:24:39.853Z,3828.00
2018-09-20T06:25:39.846Z,3876.00
2018-09-20T06:26:39.832Z,4052.00
2018-09-20T06:27:39.907Z,4144.00
2018-09-20T06:28:39.796Z,4252.00
2018-09-20T06:29:39.781Z,4320.00
2018-09-20T06:30:39.768Z,4332.00
2018-09-20T06:31:39.747Z,4500.00
2018-09-20T06:32:39.728Z,4508.00
2018-09-20T06:33:39.719Z,4448.00
2018-09-20T06:34:39.699Z,4428.00
2018-09-20T06:35:39.685Z,4436.00
2018-09-20T06:36:39.667Z,4508.00
2018-09-20T06:37:39.653Z,4664.00
2018-09-20T06:38:39.636Z,4956.00
2018-09-20T06:39:39.628Z,5456.00
2018-09-20T06:40:39.606Z,5904.00
2018-09-20T06:41:39.591Z,6540.00
2018-09-20T06:42:39.577Z,7000.00
2018-09-20T06:43:39.562Z,7132.00
2018-09-20T06:44:39.554Z,6916.00
2018-09-20T06:45:39.528Z,6576.00
2018-09-20T06:46:39.517Z,6488.00
2018-09-20T06:47:39.509Z,6480.00
2018-09-20T06:48:39.483Z,6252.00
2018-09-20T06:49:39.468Z,5896.00
2018-09-20T06:50:39.461Z,5628.00
2018-09-20T06:51:39.440Z,5492.00
2018-09-20T06:52:39.426Z,5388.00
2018-09-20T06:53:39.407Z,5464.00
2018-09-20T06:54:39.396Z,5452.00
2018-09-20T06:55:39.378Z,5508.00
2018-09-20T06:56:39.405Z,5568.00
2018-09-20T06:57:39.349Z,5636.00
2018-09-20T06:58:39.336Z,5684.00
2018-09-20T06:59:39.317Z,5664.00
2018-09-20T07:00:39.303Z,5628.00
2018-09-20T07:01:39.289Z,5752.00
2018-09-20T07:02:39.271Z,5776.00
2018-09-20T07:03:39.258Z,5840.00
2018-09-20T07:04:39.245Z,5864.00
2018-09-20T07:05:39.235Z,5820.00
2018-09-20T07:06:39.211Z,5848.00
2018-09-20T07:07:39.206Z,5856.00
2018-09-20T07:08:39.182Z,5880.00
2018-09-20T07:09:39.174Z,5828.00
2018-09-20T07:10:39.151Z,5944.00
2018-09-20T07:11:39.137Z,6000.00
2018-09-20T07:12:39.138Z,6044.00
2018-09-20T07:13:39.171Z,6060.00
2018-09-20T07:14:39.206Z,6068.00
2018-09-20T07:15:39.079Z,6012.00
2018-09-20T07:16:39.070Z,6056.00
2018-09-20T07:17:39.101Z,6120.00
2018-09-20T07:18:39.036Z,6072.00
2018-09-20T07:19:39.020Z,6164.00
2018-09-20T07:20:39.005Z,6240.00
2018-09-20T07:21:38.989Z,6280.00
2018-09-20T07:22:38.974Z,6272.00
2018-09-20T07:23:38.958Z,6276.00
2018-09-20T07:24:38.950Z,6224.00
2018-09-20T07:25:38.977Z,6316.00
2018-09-20T07:26:38.915Z,6312.00
2018-09-20T07:27:38.901Z,6408.00
2018-09-20T07:28:38.885Z,6408.00
2018-09-20T07:29:38.869Z,6468.00
2018-09-20T07:30:38.856Z,6476.00
2018-09-20T07:31:38.844Z,6544.00
2018-09-20T07:32:38.888Z,6704.00
2018-09-20T07:33:38.811Z,6816.00
2018-09-20T07:34:38.797Z,6892.00
2018-09-20T07:35:38.793Z,6948.00
2018-09-20T07:36:38.770Z,7060.00
2018-09-20T07:37:38.755Z,7268.00
2018-09-20T07:38:38.737Z,7644.00
2018-09-20T07:39:38.723Z,8184.00
2018-09-20T07:40:38.712Z,8968.00
2018-09-20T07:41:38.694Z,9808.00
2018-09-20T07:42:38.679Z,10052.00
2018-09-20T07:43:38.748Z,9796.00
2018-09-20T07:44:38.653Z,9944.00
2018-09-20T07:45:38.635Z,10444.00
2018-09-20T07:46:38.619Z,11796.00
2018-09-20T07:47:38.606Z,12892.00
2018-09-20T07:48:38.593Z,14036.00
2018-09-20T07:49:38.584Z,13816.00
2018-09-20T07:50:38.564Z,13892.00
2018-09-20T07:51:38.559Z,13712.00
2018-09-20T07:52:38.536Z,13732.00
2018-09-20T07:53:38.626Z,12184.00
2018-09-20T07:54:38.519Z,11596.00
2018-09-20T07:55:38.500Z,11324.00
2018-09-20T07:56:38.509Z,12124.00
2018-09-20T07:57:38.617Z,13420.00
2018-09-20T07:58:38.452Z,14308.00
2018-09-20T07:59:38.446Z,12488.00
2018-09-20T08:00:38.445Z,12272.00
2018-09-20T08:01:38.496Z,11456.00
2018-09-20T08:02:38.396Z,11292.00
2018-09-20T08:03:38.384Z,11732.00
2018-09-20T08:04:38.984Z,12484.00
2018-09-20T08:05:38.364Z,13416.00
2018-09-20T08:06:38.343Z,13200.00
2018-09-20T08:07:38.339Z,12044.00
2018-09-20T08:08:38.324Z,10964.00
2018-09-20T08:09:38.307Z,11088.00
2018-09-20T08:10:38.296Z,10720.00
2018-09-20T08:11:38.276Z,11408.00
2018-09-20T08:12:38.276Z,10300.00
2018-09-20T08:13:38.250Z,8700.00
2018-09-20T08:14:38.244Z,6428.00
2018-09-20T08:15:38.223Z,7220.00
2018-09-20T08:16:38.210Z,9416.00
2018-09-20T08:17:38.196Z,10432.00
2018-09-20T08:18:38.185Z,11468.00
2018-09-20T08:19:40.794Z,12428.00
2018-09-20T08:20:38.163Z,12524.00
2018-09-20T08:21:38.193Z,13420.00
2018-09-20T08:22:38.142Z,13856.00
2018-09-20T08:23:38.119Z,13864.00
2018-09-20T08:24:38.111Z,14552.00
2018-09-20T08:25:38.093Z,14916.00
2018-09-20T08:26:38.079Z,14140.00
2018-09-20T08:27:38.069Z,13664.00
2018-09-20T08:28:38.067Z,13300.00
2018-09-20T08:29:38.040Z,13112.00
2018-09-20T08:30:38.028Z,13072.00
2018-09-20T08:31:38.015Z,12676.00
2018-09-20T08:32:38.004Z,12368.00
2018-09-20T08:33:37.994Z,12836.00
2018-09-20T08:34:37.978Z,13852.00
2018-09-20T08:35:37.965Z,15360.00
2018-09-20T08:36:37.962Z,17120.00
2018-09-20T08:37:37.996Z,15996.00
2018-09-20T08:38:37.943Z,15240.00
2018-09-20T08:39:37.913Z,15708.00
2018-09-20T08:40:37.953Z,19328.00
2018-09-20T08:41:37.891Z,20128.00
2018-09-20T08:42:37.884Z,17888.00
2018-09-20T08:43:37.867Z,17120.00
2018-09-20T08:44:37.851Z,14596.00
2018-09-20T08:45:37.839Z,12340.00
2018-09-20T08:46:37.827Z,10212.00
2018-09-20T08:47:37.817Z,9104.00
2018-09-20T08:48:37.801Z,9696.00
2018-09-20T08:49:37.790Z,9244.00
2018-09-20T08:50:37.793Z,9260.00
2018-09-20T08:51:37.766Z,17632.00
2018-09-20T08:52:37.753Z,28832.00
2018-09-20T08:53:39.156Z,30496.00
2018-09-20T08:54:37.729Z,42592.00
2018-09-20T08:55:37.720Z,34560.00
2018-09-20T08:56:37.727Z,48160.00
2018-09-20T08:57:37.696Z,12100.00
2018-09-20T08:58:37.686Z,10948.00
2018-09-20T08:59:37.769Z,14284.00
2018-09-20T09:00:37.657Z,12780.00
2018-09-20T09:01:37.646Z,8928.00
2018-09-20T09:02:37.632Z,9416.00
2018-09-20T09:03:37.633Z,63776.00
2018-09-20T09:04:37.637Z,18816.00
2018-09-20T09:05:37.604Z,14612.00
2018-09-20T09:06:37.592Z,27360.00
2018-09-20T09:07:37.581Z,10700.00
2018-09-20T09:08:37.568Z,10484.00
2018-09-20T09:10:24.655Z,10012.00
2018-09-20T09:11:21.828Z,9512.00
2018-09-20T09:13:15.910Z,11220.00
2018-09-20T09:14:15.890Z,41952.00
2018-09-20T09:15:15.881Z,9324.00
2018-09-20T09:16:15.887Z,8952.00
2018-09-20T09:17:15.859Z,10740.00
2018-09-20T09:18:15.847Z,12624.00
2018-09-20T09:19:15.842Z,48800.00
2018-09-20T09:20:15.832Z,13416.00
2018-09-20T09:21:15.818Z,37184.00
2018-09-20T09:22:15.807Z,32320.00
2018-09-20T09:23:15.793Z,17664.00
2018-09-20T09:24:15.784Z,10160.00
2018-09-20T09:25:15.775Z,12356.00
2018-09-20T09:26:15.763Z,10480.00
2018-09-20T09:27:15.762Z,12048.00
2018-09-20T09:28:15.743Z,19520.00
2018-09-20T09:29:15.728Z,15156.00
2018-09-20T09:30:15.724Z,25472.00
2018-09-20T09:31:15.709Z,29280.00
2018-09-20T09:32:15.701Z,36576.00
2018-09-20T09:33:15.685Z,11648.00
2018-09-20T09:34:15.708Z,59712.00
2018-09-20T09:35:19.324Z,32608.00
2018-09-20T09:36:15.653Z,50912.00
2018-09-20T09:37:59.573Z,61888.00
2018-09-20T09:38:59.563Z,60384.00
2018-09-20T09:39:59.570Z,63744.00
2018-09-20T09:40:59.544Z,64768.00
2018-09-20T09:41:59.536Z,65120.00
2018-09-20T09:42:59.524Z,62592.00
2018-09-20T09:44:00.332Z,62496.00
2018-09-20T09:44:59.507Z,64576.00
2018-09-20T09:45:59.548Z,53024.00
2018-09-20T09:46:59.495Z,53952.00
2018-09-20T09:47:59.487Z,57280.00
2018-09-20T09:48:59.486Z,53888.00
2018-09-20T09:49:59.485Z,57792.00
2018-09-20T09:50:59.460Z,53536.00
2018-09-20T09:51:59.462Z,63712.00
2018-09-20T09:52:59.466Z,58752.00
2018-09-20T09:53:59.449Z,62752.00
2018-09-20T09:54:59.433Z,66592.00
2018-09-20T09:55:59.445Z,58208.00
2018-09-20T09:56:59.424Z,59392.00
2018-09-20T09:57:59.420Z,56192.00
2018-09-20T09:58:59.426Z,52608.00
2018-09-20T09:59:59.405Z,50816.00
2018-09-20T10:00:59.397Z,56992.00
2018-09-20T10:01:59.391Z,57568.00
2018-09-20T10:02:59.385Z,55072.00
2018-09-20T10:03:59.390Z,49696.00
2018-09-20T10:04:59.374Z,41568.00
2018-09-20T10:05:59.374Z,17472.00
2018-09-20T10:06:59.405Z,15676.00
2018-09-20T10:07:59.364Z,13520.00
2018-09-20T10:08:59.350Z,64480.00
2018-09-20T10:09:59.346Z,56256.00
2018-09-20T10:10:59.340Z,15572.00
2018-09-20T10:11:59.340Z,46912.00
2018-09-20T10:12:59.327Z,47744.00
2018-09-20T10:13:59.321Z,61696.00
2018-09-20T10:14:59.327Z,74720.00
2018-09-20T10:15:59.313Z,15648.00
2018-09-20T10:16:59.302Z,17312.00
2018-09-20T10:17:59.303Z,54176.00
2018-09-20T10:18:59.287Z,30112.00
2018-09-20T10:19:59.348Z,54944.00
2018-09-20T10:20:59.276Z,66048.00
2018-09-20T10:21:59.269Z,9340.00
2018-09-20T10:22:59.262Z,10260.00
2018-09-20T10:23:59.300Z,12116.00
2018-09-20T10:24:59.255Z,66688.00
2018-09-20T10:25:59.244Z,53344.00
2018-09-20T10:26:59.242Z,69536.00
2018-09-20T10:27:59.297Z,32544.00
2018-09-20T10:28:59.228Z,64704.00
2018-09-20T10:29:59.228Z,62560.00
2018-09-20T10:30:59.214Z,13356.00
2018-09-20T10:31:59.203Z,49344.00
2018-09-20T10:32:59.196Z,16832.00
2018-09-20T10:33:59.242Z,32192.00
2018-09-20T10:34:59.179Z,49024.00
2018-09-20T10:35:59.226Z,21632.00
2018-09-20T10:36:59.183Z,49792.00
2018-09-20T10:37:59.158Z,60896.00
2018-09-20T10:38:59.152Z,54208.00
2018-09-20T10:39:59.152Z,15140.00
2018-09-20T10:40:59.137Z,20512.00
2018-09-20T10:41:59.151Z,55360.00
2018-09-20T10:42:59.139Z,40416.00
2018-09-20T10:43:59.129Z,19776.00
2018-09-20T10:44:59.127Z,38912.00
2018-09-20T10:45:59.133Z,42112.00
2018-09-20T10:46:59.114Z,44960.00
2018-09-20T10:47:59.091Z,23104.00
2018-09-20T10:48:59.086Z,57888.00
2018-09-20T10:49:59.077Z,60800.00
2018-09-20T10:50:59.088Z,50400.00
2018-09-20T10:51:59.067Z,44288.00
2018-09-20T10:52:59.071Z,44384.00
2018-09-20T10:53:59.057Z,20128.00
2018-09-20T10:54:59.044Z,37376.00
2018-09-20T10:55:59.045Z,18112.00
2018-09-20T10:56:59.046Z,15788.00
2018-09-20T10:57:59.028Z,26752.00
2018-09-20T10:58:59.018Z,48992.00
2018-09-20T10:59:59.018Z,43904.00
2018-09-20T11:00:59.006Z,43072.00
2018-09-20T11:01:59.000Z,35392.00
2018-09-20T11:02:59.060Z,46848.00
2018-09-20T11:03:58.988Z,52480.00
2018-09-20T11:04:58.986Z,52448.00
2018-09-20T11:05:58.971Z,38944.00
2018-09-20T11:06:58.968Z,28128.00
2018-09-20T11:07:58.968Z,40480.00
2018-09-20T11:08:58.961Z,16108.00
2018-09-20T11:09:58.954Z,29728.00
2018-09-20T11:10:59.011Z,11720.00
2018-09-20T11:11:58.930Z,12384.00
2018-09-20T11:12:58.923Z,30976.00
2018-09-20T11:13:58.916Z,40288.00
2018-09-20T11:14:58.919Z,42272.00
2018-09-20T11:15:58.912Z,40704.00
2018-09-20T11:16:58.907Z,18528.00
2018-09-20T11:17:58.887Z,28352.00
2018-09-20T11:18:58.881Z,28608.00
2018-09-20T11:19:58.873Z,24960.00
2018-09-20T11:20:58.865Z,15252.00
2018-09-20T11:21:58.859Z,18048.00
2018-09-20T11:22:58.850Z,20160.00
2018-09-20T11:23:58.844Z,28160.00
2018-09-20T11:24:58.837Z,32704.00
2018-09-20T11:25:58.852Z,40544.00
2018-09-20T11:26:58.836Z,40096.00
2018-09-20T11:27:58.814Z,18848.00
2018-09-20T11:28:58.806Z,40032.00
2018-09-20T11:29:58.804Z,42208.00
2018-09-20T11:30:58.795Z,38432.00
2018-09-20T11:31:58.792Z,40800.00
2018-09-20T11:32:58.775Z,33600.00
2018-09-20T11:33:58.767Z,43584.00
2018-09-20T11:34:58.757Z,40992.00
2018-09-20T11:35:58.751Z,50048.00
2018-09-20T11:36:58.743Z,16344.00
2018-09-20T11:37:58.749Z,41184.00
2018-09-20T11:38:58.743Z,33440.00
2018-09-20T11:39:58.725Z,41888.00
2018-09-20T11:40:58.712Z,38496.00
2018-09-20T11:41:58.707Z,35680.00
2018-09-20T11:42:58.696Z,53888.00
2018-09-20T11:43:58.690Z,17184.00
2018-09-20T11:44:58.682Z,16764.00
2018-09-20T11:45:58.674Z,19552.00
2018-09-20T11:46:58.821Z,13620.00
2018-09-20T11:47:58.663Z,12408.00
2018-09-20T11:48:58.653Z,15652.00
2018-09-20T11:49:58.643Z,11724.00
2018-09-20T11:50:58.643Z,11916.00
2018-09-20T11:51:58.629Z,40896.00
2018-09-20T11:52:58.622Z,19584.00
2018-09-20T11:53:58.619Z,12336.00
2018-09-20T11:54:58.602Z,15192.00
2018-09-20T11:55:58.596Z,15768.00
2018-09-20T11:56:58.587Z,13300.00
2018-09-20T11:57:58.576Z,12660.00
2018-09-20T11:58:58.578Z,12628.00
2018-09-20T11:59:58.577Z,13108.00
2018-09-20T12:00:58.557Z,12276.00
2018-09-20T12:01:58.606Z,11276.00
2018-09-20T12:02:58.536Z,11168.00
2018-09-20T12:03:58.536Z,11528.00
2018-09-20T12:04:58.531Z,10940.00
2018-09-20T12:05:58.520Z,10504.00
2018-09-20T12:06:58.521Z,10168.00
2018-09-20T12:07:58.508Z,8852.00
2018-09-20T12:08:58.497Z,9428.00
2018-09-20T12:09:58.485Z,8860.00
2018-09-20T12:10:58.471Z,8488.00
2018-09-20T12:11:58.461Z,8228.00
2018-09-20T12:12:58.506Z,7652.00
2018-09-20T12:13:58.459Z,8056.00
2018-09-20T12:14:58.434Z,7104.00
2018-09-20T12:15:58.530Z,6596.00
2018-09-20T12:16:58.437Z,9256.00
2018-09-20T12:17:58.407Z,8448.00
2018-09-20T12:18:58.411Z,7780.00
2018-09-20T12:19:58.449Z,6520.00
2018-09-20T12:20:58.390Z,6772.00
2018-09-20T12:21:58.383Z,8488.00
2018-09-20T12:22:58.373Z,8508.00
2018-09-20T12:24:47.840Z,6624.00
2018-09-20T12:25:47.841Z,8084.00
2018-09-20T12:26:47.820Z,8332.00
2018-09-20T12:27:47.820Z,8128.00
2018-09-20T12:28:47.822Z,6776.00
2018-09-20T12:29:47.793Z,7016.00
2018-09-20T12:30:47.784Z,7856.00